Cherrycreek, Mississippi
Current Conditions -  °F | °C
As of 3:53 AM on Wednesday 22 Oct 2014 (Local Time) from KTUP Reporting Station
Clear Clear  
Wind Chill: 45°   Ceiling: Unl
Heat Index: 48°   Visibility: 10mi
Dew Point: 45°   Wind: 7mph
Humidity: 89%   Direction: 50°NE
Pressure: 30.12"   Gusts: NA
Location:  34.4333°N, 88.8629°W
Report Text: KTUP 220853Z AUTO 05006KT 10SM CLR 09/07 A3012 RMK AO2 SLP196 T00890072 51011 PWINO
Loading
Personal Weather Stations






























Interactive Weather Map
Tropical Storm Tracking
New forecast layout! Learn more

10-Day Weather Forecast

Advertisements
Track Severe Weather on mobile